createdAt,value
2023-01-26T00:00:26.538Z,1.61
2023-01-26T00:02:30.722Z,1.64
2023-01-26T00:04:33.596Z,1.54
2023-01-26T00:06:36.393Z,1.52
2023-01-26T00:08:39.418Z,1.55
2023-01-26T00:10:50.071Z,1.55
2023-01-26T00:12:52.883Z,1.53
2023-01-26T00:14:55.612Z,1.55
2023-01-26T00:16:58.474Z,1.49
2023-01-26T00:19:03.535Z,1.46
2023-01-26T00:21:08.612Z,1.49
2023-01-26T00:23:11.387Z,1.55
2023-01-26T00:25:14.126Z,1.67
2023-01-26T00:27:16.919Z,1.68
2023-01-26T00:29:19.738Z,1.63
2023-01-26T00:31:24.289Z,1.64
2023-01-26T00:33:28.487Z,1.57
2023-01-26T00:35:32.637Z,1.58
2023-01-26T00:37:35.458Z,1.56
2023-01-26T00:39:38.347Z,1.49
2023-01-26T00:41:58.628Z,1.39
2023-01-26T00:44:01.699Z,1.33
2023-01-26T00:46:04.609Z,1.28
2023-01-26T00:48:08.442Z,1.34
2023-01-26T00:50:12.559Z,1.42
2023-01-26T00:52:17.098Z,1.41
2023-01-26T00:54:19.987Z,1.37
2023-01-26T00:56:22.770Z,1.34
2023-01-26T00:58:25.700Z,1.23
2023-01-26T01:00:29.802Z,1.20
2023-01-26T01:02:32.818Z,1.28
2023-01-26T01:04:35.636Z,1.41
2023-01-26T01:06:38.710Z,1.54
2023-01-26T01:08:42.858Z,1.74
2023-01-26T01:10:45.664Z,1.77
2023-01-26T01:12:48.640Z,1.77
2023-01-26T01:14:52.377Z,1.71
2023-01-26T01:16:55.203Z,1.67
2023-01-26T01:18:58.396Z,1.66
2023-01-26T01:21:01.220Z,1.50
2023-01-26T01:23:04.013Z,1.51
2023-01-26T01:25:08.739Z,1.49
2023-01-26T01:27:11.559Z,1.45
2023-01-26T01:29:15.088Z,1.45
2023-01-26T01:31:18.158Z,1.45
2023-01-26T01:33:21.291Z,1.50
2023-01-26T01:35:24.090Z,1.48
2023-01-26T01:37:26.946Z,1.52
2023-01-26T01:39:29.950Z,1.63
2023-01-26T01:41:34.135Z,1.66
2023-01-26T01:43:37.869Z,1.70
2023-01-26T01:45:44.269Z,1.70
2023-01-26T01:47:47.345Z,1.59
2023-01-26T01:49:53.457Z,1.53
2023-01-26T01:52:00.990Z,1.81
2023-01-26T01:54:08.398Z,1.83
2023-01-26T01:56:14.386Z,1.68
2023-01-26T01:58:19.442Z,1.61
2023-01-26T02:00:22.796Z,1.59
2023-01-26T02:02:25.983Z,1.82
2023-01-26T02:04:29.239Z,1.79
2023-01-26T02:06:36.328Z,1.75
2023-01-26T02:08:41.914Z,1.73
2023-01-26T02:10:50.335Z,1.76
2023-01-26T02:12:56.735Z,1.57
2023-01-26T02:15:02.358Z,1.50
2023-01-26T02:17:05.134Z,1.48
2023-01-26T02:19:15.620Z,1.44
2023-01-26T02:21:22.538Z,1.46
2023-01-26T02:23:37.094Z,1.39
2023-01-26T02:25:46.030Z,1.43
2023-01-26T02:27:50.439Z,1.36
2023-01-26T02:29:54.767Z,1.27
2023-01-26T02:31:58.548Z,1.38
2023-01-26T02:34:01.454Z,1.52
2023-01-26T02:36:06.047Z,1.61
2023-01-26T02:38:09.578Z,1.54
2023-01-26T02:40:20.188Z,1.78
2023-01-26T02:42:41.945Z,1.73
2023-01-26T02:44:46.295Z,1.72
2023-01-26T02:46:49.133Z,1.63
2023-01-26T02:49:10.103Z,1.59
2023-01-26T02:51:13.094Z,1.61
2023-01-26T02:53:15.882Z,1.67
2023-01-26T02:55:25.047Z,1.71
2023-01-26T02:57:28.266Z,1.67
2023-01-26T02:59:31.077Z,1.64
2023-01-26T03:01:35.250Z,1.67
2023-01-26T03:03:46.741Z,1.53
2023-01-26T03:05:50.649Z,1.61
2023-01-26T03:07:53.954Z,1.61
2023-01-26T03:09:59.809Z,1.45
2023-01-26T03:12:02.665Z,1.43
2023-01-26T03:14:05.558Z,1.37
2023-01-26T03:16:10.216Z,1.50
2023-01-26T03:18:34.170Z,1.55
2023-01-26T03:20:56.310Z,1.46
2023-01-26T03:23:17.096Z,1.46
2023-01-26T03:25:37.531Z,1.45
2023-01-26T03:27:43.935Z,1.44
2023-01-26T03:29:48.449Z,1.44
2023-01-26T03:31:51.493Z,1.53
2023-01-26T03:33:56.208Z,1.50
2023-01-26T03:35:59.061Z,1.38
2023-01-26T03:38:02.460Z,1.42
2023-01-26T03:40:36.619Z,1.39
2023-01-26T03:42:57.349Z,1.37
2023-01-26T03:45:18.052Z,1.41
2023-01-26T03:47:38.479Z,1.31
2023-01-26T03:50:00.401Z,1.43
2023-01-26T03:52:21.067Z,1.29
2023-01-26T03:54:42.719Z,1.29
2023-01-26T03:56:45.595Z,1.33
2023-01-26T03:58:53.064Z,1.27
2023-01-26T04:00:58.332Z,1.31
2023-01-26T04:03:18.957Z,1.33
2023-01-26T04:05:40.569Z,1.18
2023-01-26T04:08:01.060Z,1.10
2023-01-26T04:10:04.369Z,1.24
2023-01-26T04:12:10.183Z,1.43
2023-01-26T04:14:38.088Z,1.37
2023-01-26T04:17:11.936Z,1.42
2023-01-26T04:19:32.552Z,1.25
2023-01-26T04:21:37.519Z,1.27
2023-01-26T04:23:48.354Z,1.17
2023-01-26T04:25:51.256Z,1.15
2023-01-26T04:27:54.664Z,1.19
2023-01-26T04:29:58.077Z,1.10
2023-01-26T04:32:00.881Z,1.06
2023-01-26T04:34:06.521Z,0.98
2023-01-26T04:36:10.128Z,0.90
2023-01-26T04:38:18.380Z,0.82
2023-01-26T04:40:21.502Z,0.86
2023-01-26T04:42:25.376Z,0.92
2023-01-26T04:44:28.780Z,0.96
2023-01-26T04:46:33.946Z,0.97
2023-01-26T04:48:38.817Z,1.02
2023-01-26T04:50:42.139Z,1.01
2023-01-26T04:52:44.970Z,1.05
2023-01-26T04:54:49.274Z,1.27
2023-01-26T04:56:52.180Z,1.21
2023-01-26T04:58:56.320Z,1.33
2023-01-26T05:01:00.028Z,1.46
2023-01-26T05:03:02.836Z,1.21
2023-01-26T05:05:06.481Z,1.17
2023-01-26T05:07:09.256Z,1.15
2023-01-26T05:09:12.602Z,1.17
2023-01-26T05:11:19.088Z,1.24
2023-01-26T05:13:30.985Z,1.25
2023-01-26T05:15:58.570Z,1.16
2023-01-26T05:18:21.739Z,1.11
2023-01-26T05:20:50.941Z,1.06
2023-01-26T05:22:58.689Z,1.05
2023-01-26T05:25:30.850Z,1.05
2023-01-26T05:27:40.342Z,1.02
2023-01-26T05:29:44.040Z,1.04
2023-01-26T05:31:47.414Z,1.06
2023-01-26T05:33:50.386Z,1.11
2023-01-26T05:35:59.123Z,1.03
2023-01-26T05:38:01.996Z,1.06
2023-01-26T05:40:08.602Z,1.11
2023-01-26T05:42:12.519Z,1.11
2023-01-26T05:44:36.971Z,1.13
2023-01-26T05:46:47.864Z,1.10
2023-01-26T05:48:51.250Z,0.98
2023-01-26T05:50:57.488Z,0.94
2023-01-26T05:53:02.981Z,1.01
2023-01-26T05:55:07.801Z,1.08
2023-01-26T05:57:11.851Z,1.09
2023-01-26T05:59:19.634Z,1.14
2023-01-26T06:01:24.081Z,1.20
2023-01-26T06:03:33.235Z,1.20
2023-01-26T06:05:36.129Z,1.24
2023-01-26T06:07:45.217Z,1.25
2023-01-26T06:09:53.507Z,1.22
2023-01-26T06:12:20.111Z,1.15
2023-01-26T06:14:44.626Z,1.16
2023-01-26T06:16:50.380Z,1.44
2023-01-26T06:18:54.100Z,1.35
2023-01-26T06:21:00.829Z,1.23
2023-01-26T06:23:03.626Z,1.29
2023-01-26T06:25:10.306Z,1.30
2023-01-26T06:27:14.644Z,1.34
2023-01-26T06:29:18.983Z,1.53
2023-01-26T06:31:24.179Z,1.42
2023-01-26T06:33:29.429Z,1.54
2023-01-26T06:35:32.177Z,1.47
2023-01-26T06:37:37.841Z,1.53
2023-01-26T06:39:41.523Z,1.73
2023-01-26T06:41:45.206Z,1.70
2023-01-26T06:43:49.710Z,1.62
2023-01-26T06:45:52.702Z,1.71
2023-01-26T06:47:57.166Z,1.70
2023-01-26T06:50:01.912Z,1.63
2023-01-26T06:52:22.702Z,1.68
2023-01-26T06:54:28.170Z,1.71
2023-01-26T06:57:00.579Z,1.83
2023-01-26T06:59:24.898Z,1.72
2023-01-26T07:01:48.714Z,1.59
2023-01-26T07:03:52.572Z,1.57
2023-01-26T07:05:56.683Z,1.61
2023-01-26T07:08:02.313Z,1.54
2023-01-26T07:10:06.754Z,1.56
2023-01-26T07:12:10.018Z,1.57
2023-01-26T07:14:12.768Z,1.59
2023-01-26T07:16:17.522Z,1.46
2023-01-26T07:18:20.257Z,1.29
2023-01-26T07:20:23.023Z,1.42
2023-01-26T07:22:27.151Z,1.43
2023-01-26T07:24:30.330Z,1.46
2023-01-26T07:26:33.075Z,1.48
2023-01-26T07:28:35.819Z,1.49
2023-01-26T07:30:38.674Z,1.55
2023-01-26T07:32:42.064Z,1.50
2023-01-26T07:34:44.891Z,1.54
2023-01-26T07:36:47.665Z,1.50
2023-01-26T07:38:51.819Z,1.51
2023-01-26T07:40:54.772Z,1.55
2023-01-26T07:42:59.073Z,1.42
2023-01-26T07:45:24.027Z,1.43
2023-01-26T07:47:26.962Z,1.45
2023-01-26T07:49:29.856Z,1.34
2023-01-26T07:51:32.697Z,1.26
2023-01-26T07:53:39.220Z,1.32
2023-01-26T07:55:44.175Z,1.30
2023-01-26T07:57:48.855Z,1.17
2023-01-26T07:59:53.129Z,1.18
2023-01-26T08:01:56.085Z,1.16
2023-01-26T08:03:59.088Z,1.19
2023-01-26T08:06:01.992Z,1.48
2023-01-26T08:08:08.545Z,1.43
2023-01-26T08:10:12.596Z,1.32
2023-01-26T08:12:16.868Z,1.30
2023-01-26T08:14:19.699Z,1.37
2023-01-26T08:16:22.676Z,1.15
2023-01-26T08:18:25.559Z,1.26
2023-01-26T08:20:28.368Z,1.27
2023-01-26T08:22:31.310Z,1.17
2023-01-26T08:24:34.107Z,1.18
2023-01-26T08:26:37.938Z,1.17
2023-01-26T08:28:42.561Z,1.27
2023-01-26T08:30:45.385Z,1.26
2023-01-26T08:32:48.193Z,1.29
2023-01-26T08:34:51.391Z,1.31
2023-01-26T08:36:54.211Z,1.34
2023-01-26T08:38:57.094Z,1.39
2023-01-26T08:41:00.395Z,1.42
2023-01-26T08:43:03.553Z,1.39
2023-01-26T08:45:09.581Z,1.35
2023-01-26T08:47:12.402Z,1.30
2023-01-26T08:49:15.272Z,1.29
2023-01-26T08:51:18.316Z,1.36
2023-01-26T08:53:21.218Z,1.33
2023-01-26T08:55:24.151Z,1.27
2023-01-26T08:57:26.942Z,1.19
2023-01-26T08:59:29.835Z,1.30
2023-01-26T09:01:33.983Z,1.44
2023-01-26T09:03:36.810Z,1.48
2023-01-26T09:05:41.164Z,1.40
2023-01-26T09:07:44.206Z,1.24
2023-01-26T09:09:49.049Z,1.35
2023-01-26T09:11:52.380Z,1.27
2023-01-26T09:13:56.622Z,1.29
2023-01-26T09:16:00.364Z,1.35
2023-01-26T09:18:04.578Z,1.20
2023-01-26T09:20:09.847Z,1.19
2023-01-26T09:22:12.877Z,1.25
2023-01-26T09:24:15.774Z,1.35
2023-01-26T09:26:18.651Z,1.25
2023-01-26T09:28:21.619Z,1.32
2023-01-26T09:30:24.862Z,1.43
2023-01-26T09:32:27.950Z,1.36
2023-01-26T09:34:32.362Z,1.31
2023-01-26T09:36:35.120Z,1.56
2023-01-26T09:38:38.697Z,1.43
2023-01-26T09:40:51.093Z,1.28
2023-01-26T09:43:12.613Z,1.24
2023-01-26T09:45:25.227Z,1.29
2023-01-26T09:47:35.535Z,1.18
2023-01-26T09:49:48.276Z,1.31
2023-01-26T09:52:00.601Z,1.33
2023-01-26T09:54:15.921Z,1.32
2023-01-26T09:56:20.488Z,1.39
2023-01-26T09:58:31.687Z,1.40
2023-01-26T10:00:40.159Z,1.57
2023-01-26T10:02:56.335Z,1.53
2023-01-26T10:05:05.731Z,1.48
2023-01-26T10:07:12.388Z,1.50
2023-01-26T10:09:25.155Z,1.56
2023-01-26T10:11:33.089Z,1.66
2023-01-26T10:13:36.225Z,1.57
2023-01-26T10:15:43.212Z,1.59
2023-01-26T10:17:48.258Z,1.55
2023-01-26T10:19:52.096Z,1.47
2023-01-26T10:21:58.543Z,1.57
2023-01-26T10:24:02.981Z,1.62
2023-01-26T10:26:14.306Z,1.53
2023-01-26T10:28:20.498Z,1.57
2023-01-26T10:30:23.533Z,1.65
2023-01-26T10:32:26.636Z,1.67
2023-01-26T10:34:29.980Z,1.54
2023-01-26T10:36:33.461Z,1.65
2023-01-26T10:38:43.559Z,1.54
2023-01-26T10:40:46.374Z,1.52
2023-01-26T10:42:57.740Z,1.53
2023-01-26T10:45:02.505Z,1.45
2023-01-26T10:47:16.453Z,1.49
2023-01-26T10:49:21.993Z,1.42
2023-01-26T10:51:27.969Z,1.30
2023-01-26T10:53:30.940Z,1.42
2023-01-26T10:55:37.238Z,1.35
2023-01-26T10:57:42.602Z,1.43
2023-01-26T10:59:51.995Z,1.51
2023-01-26T11:01:57.218Z,1.39
2023-01-26T11:04:05.573Z,1.59
2023-01-26T11:06:14.527Z,1.56
2023-01-26T11:08:33.429Z,1.50
2023-01-26T11:10:39.820Z,1.60
2023-01-26T11:12:42.649Z,1.51
2023-01-26T11:15:01.457Z,1.47
2023-01-26T11:17:16.067Z,1.51
2023-01-26T11:19:42.276Z,1.34
2023-01-26T11:21:48.482Z,1.39
2023-01-26T11:24:01.390Z,1.38
2023-01-26T11:26:38.815Z,1.24
2023-01-26T11:28:57.161Z,1.45
2023-01-26T11:31:17.292Z,1.52
2023-01-26T11:33:30.054Z,1.30
2023-01-26T11:35:43.439Z,1.44
2023-01-26T11:37:49.254Z,1.55
2023-01-26T11:40:00.502Z,1.54
2023-01-26T11:42:20.859Z,1.45
2023-01-26T11:44:49.910Z,1.43
2023-01-26T11:47:06.720Z,1.43
2023-01-26T11:49:24.898Z,1.31
2023-01-26T11:51:41.155Z,1.44
2023-01-26T11:54:06.724Z,1.36
2023-01-26T11:56:22.230Z,1.34
2023-01-26T11:58:31.157Z,1.36
2023-01-26T12:00:41.459Z,1.43
2023-01-26T12:02:55.024Z,1.38
2023-01-26T12:05:03.242Z,1.37
2023-01-26T12:07:12.314Z,1.35
2023-01-26T12:09:21.326Z,1.49
2023-01-26T12:11:30.306Z,1.43
2023-01-26T12:13:39.972Z,1.41
2023-01-26T12:15:51.028Z,1.22
2023-01-26T12:18:00.662Z,1.26
2023-01-26T12:20:14.311Z,1.17
2023-01-26T12:22:23.513Z,1.20
2023-01-26T12:25:04.781Z,1.21
2023-01-26T12:27:04.741Z,1.15
2023-01-26T12:29:17.325Z,1.24
2023-01-26T12:31:28.947Z,1.23
2023-01-26T12:33:33.374Z,1.34
2023-01-26T12:35:53.354Z,1.33
2023-01-26T12:38:17.036Z,1.28
2023-01-26T12:40:33.973Z,1.26
2023-01-26T12:42:45.601Z,1.17
2023-01-26T12:44:55.009Z,1.24
2023-01-26T12:47:07.755Z,1.42
2023-01-26T12:49:18.433Z,1.44
2023-01-26T12:51:26.817Z,1.34
2023-01-26T12:53:35.144Z,1.29
2023-01-26T12:55:43.957Z,1.25
2023-01-26T12:57:51.647Z,1.17
2023-01-26T13:00:05.668Z,1.09
2023-01-26T13:02:21.828Z,1.26
2023-01-26T13:04:24.948Z,1.26
2023-01-26T13:06:29.028Z,1.16
2023-01-26T13:08:51.398Z,1.14
2023-01-26T13:10:54.187Z,1.31
2023-01-26T13:12:59.975Z,1.27
2023-01-26T13:15:07.810Z,1.25
2023-01-26T13:17:43.599Z,1.34
2023-01-26T13:19:53.984Z,1.15
2023-01-26T13:21:56.738Z,1.21
2023-01-26T13:23:59.572Z,1.15
2023-01-26T13:26:26.137Z,1.20
2023-01-26T13:28:29.997Z,1.17
2023-01-26T13:30:47.161Z,1.05
2023-01-26T13:32:54.261Z,1.20
2023-01-26T13:34:58.707Z,1.12
2023-01-26T13:37:10.154Z,1.15
2023-01-26T13:39:22.193Z,1.12
2023-01-26T13:41:25.071Z,1.19
2023-01-26T13:43:33.754Z,1.24
2023-01-26T13:45:41.375Z,1.14
2023-01-26T13:47:50.171Z,1.06
2023-01-26T13:49:52.991Z,0.98
2023-01-26T13:51:55.818Z,1.14
2023-01-26T13:54:01.891Z,1.03
2023-01-26T13:56:07.285Z,1.03
2023-01-26T13:58:13.606Z,1.07
2023-01-26T14:00:17.612Z,1.04
2023-01-26T14:02:25.952Z,1.04
2023-01-26T14:04:32.179Z,1.08
2023-01-26T14:06:37.162Z,1.16
2023-01-26T14:08:40.225Z,1.04
2023-01-26T14:10:43.983Z,1.04
2023-01-26T14:12:49.078Z,1.18
2023-01-26T14:14:55.822Z,1.18
2023-01-26T14:16:59.811Z,1.15
2023-01-26T14:19:14.135Z,0.96
2023-01-26T14:21:20.860Z,1.07
2023-01-26T14:23:23.780Z,0.96
2023-01-26T14:25:26.613Z,1.10
2023-01-26T14:27:36.582Z,1.19
2023-01-26T14:29:40.237Z,1.15
2023-01-26T14:31:43.114Z,1.02
2023-01-26T14:33:46.261Z,1.03
2023-01-26T14:35:57.047Z,1.08
2023-01-26T14:38:14.815Z,1.14
2023-01-26T14:40:23.282Z,1.01
2023-01-26T14:42:26.378Z,0.94
2023-01-26T14:44:29.341Z,0.95
2023-01-26T14:46:39.257Z,0.98
2023-01-26T14:48:48.053Z,1.16
2023-01-26T14:50:50.864Z,0.97
2023-01-26T14:52:55.408Z,1.08
2023-01-26T14:55:06.380Z,0.97
2023-01-26T14:57:18.472Z,0.98
2023-01-26T14:59:24.966Z,1.12
2023-01-26T15:01:28.743Z,1.04
2023-01-26T15:03:37.751Z,1.03
2023-01-26T15:05:42.390Z,0.90
2023-01-26T15:07:50.651Z,1.01
2023-01-26T15:09:57.098Z,1.14
2023-01-26T15:12:17.906Z,1.04
2023-01-26T15:14:34.217Z,1.17
2023-01-26T15:16:53.871Z,1.09
2023-01-26T15:19:02.405Z,1.15
2023-01-26T15:21:14.231Z,1.18
2023-01-26T15:23:24.133Z,1.06
2023-01-26T15:25:28.991Z,1.00
2023-01-26T15:27:35.072Z,1.10
2023-01-26T15:29:37.882Z,1.20
2023-01-26T15:31:43.062Z,1.04
2023-01-26T15:33:51.066Z,1.09
2023-01-26T15:35:59.125Z,1.09
2023-01-26T15:38:04.312Z,0.95
2023-01-26T15:40:08.549Z,1.04
2023-01-26T15:42:16.636Z,1.11
2023-01-26T15:44:22.307Z,0.96
2023-01-26T15:46:25.368Z,1.02
2023-01-26T15:48:31.637Z,1.11
2023-01-26T15:50:34.555Z,1.00
2023-01-26T15:52:37.387Z,1.03
2023-01-26T15:54:40.160Z,1.01
2023-01-26T15:56:43.100Z,1.02
2023-01-26T15:58:45.933Z,1.04
2023-01-26T16:00:52.322Z,1.03
2023-01-26T16:02:55.339Z,1.03
2023-01-26T16:04:58.146Z,1.06
2023-01-26T16:07:01.133Z,1.08
2023-01-26T16:09:04.318Z,1.06
2023-01-26T16:11:10.519Z,1.00
2023-01-26T16:13:14.763Z,1.06
2023-01-26T16:15:32.443Z,1.15
2023-01-26T16:17:36.606Z,1.09
2023-01-26T16:19:39.486Z,1.16
2023-01-26T16:21:45.888Z,1.09
2023-01-26T16:23:49.089Z,1.03
2023-01-26T16:25:52.641Z,1.06
2023-01-26T16:27:56.154Z,1.03
2023-01-26T16:29:59.017Z,0.90
2023-01-26T16:32:02.476Z,0.95
2023-01-26T16:34:06.678Z,0.83
2023-01-26T16:36:11.630Z,0.80
2023-01-26T16:38:14.473Z,0.81
2023-01-26T16:40:19.213Z,0.82
2023-01-26T16:42:22.517Z,0.96
2023-01-26T16:44:25.444Z,1.02
2023-01-26T16:46:29.634Z,0.98
2023-01-26T16:48:34.738Z,0.91
2023-01-26T16:50:38.896Z,0.86
2023-01-26T16:52:42.250Z,0.80
2023-01-26T16:54:45.606Z,0.87
2023-01-26T16:56:48.387Z,0.81
2023-01-26T16:58:51.650Z,0.82
2023-01-26T17:00:55.115Z,0.89
2023-01-26T17:02:57.958Z,0.86
2023-01-26T17:05:00.790Z,0.84
2023-01-26T17:07:05.066Z,0.94
2023-01-26T17:09:07.963Z,0.89
2023-01-26T17:11:17.381Z,0.85
2023-01-26T17:13:20.222Z,0.91
2023-01-26T17:15:24.510Z,0.84
2023-01-26T17:17:27.395Z,0.84
2023-01-26T17:19:30.248Z,0.86
2023-01-26T17:21:33.122Z,0.86
2023-01-26T17:23:41.427Z,0.97
2023-01-26T17:25:44.239Z,0.86
2023-01-26T17:27:49.722Z,0.91
2023-01-26T17:29:52.626Z,0.78
2023-01-26T17:31:55.554Z,0.81
2023-01-26T17:33:58.356Z,0.88
2023-01-26T17:36:01.756Z,0.82
2023-01-26T17:38:05.188Z,0.87
2023-01-26T17:40:11.130Z,0.98
2023-01-26T17:42:14.213Z,0.95
2023-01-26T17:44:17.002Z,0.86
2023-01-26T17:46:21.902Z,1.00
2023-01-26T17:48:24.610Z,0.88
2023-01-26T17:50:27.444Z,0.86
2023-01-26T17:52:31.304Z,0.87
2023-01-26T17:54:34.178Z,1.00
2023-01-26T17:56:38.334Z,1.02
2023-01-26T17:58:41.564Z,1.00
2023-01-26T18:00:44.513Z,0.97
2023-01-26T18:02:47.442Z,1.17
2023-01-26T18:04:50.240Z,1.21
2023-01-26T18:06:53.055Z,1.04
2023-01-26T18:08:55.832Z,0.95
2023-01-26T18:10:59.201Z,1.04
2023-01-26T18:13:03.380Z,0.98
2023-01-26T18:15:07.412Z,0.98
2023-01-26T18:17:10.305Z,0.86
2023-01-26T18:19:13.202Z,0.86
2023-01-26T18:21:17.787Z,0.89
2023-01-26T18:23:21.985Z,0.98
2023-01-26T18:25:24.845Z,1.02
2023-01-26T18:27:27.740Z,0.90
2023-01-26T18:29:32.025Z,0.88
2023-01-26T18:31:38.044Z,0.91
2023-01-26T18:33:41.190Z,0.91
2023-01-26T18:35:44.032Z,0.92
2023-01-26T18:37:46.982Z,1.09
2023-01-26T18:39:50.177Z,1.12
2023-01-26T18:41:52.930Z,0.97
2023-01-26T18:43:57.800Z,0.95
2023-01-26T18:46:03.104Z,0.88
2023-01-26T18:48:06.689Z,0.98
2023-01-26T18:50:11.704Z,1.07
2023-01-26T18:52:14.463Z,1.10
2023-01-26T18:54:17.800Z,1.11
2023-01-26T18:56:20.665Z,1.08
2023-01-26T18:58:23.533Z,1.04
2023-01-26T19:00:26.425Z,0.97
2023-01-26T19:02:33.487Z,0.99
2023-01-26T19:04:36.431Z,0.89
2023-01-26T19:06:39.218Z,0.84
2023-01-26T19:08:42.551Z,0.92
2023-01-26T19:10:45.370Z,1.01
2023-01-26T19:12:50.234Z,1.04
2023-01-26T19:14:53.040Z,1.01
2023-01-26T19:16:56.136Z,0.98
2023-01-26T19:19:06.716Z,0.98
2023-01-26T19:21:10.471Z,0.98
2023-01-26T19:23:13.243Z,0.98
2023-01-26T19:25:16.088Z,0.87
2023-01-26T19:27:18.931Z,0.91
2023-01-26T19:29:21.715Z,0.98
2023-01-26T19:31:26.245Z,0.97
2023-01-26T19:33:29.130Z,0.94
2023-01-26T19:35:33.424Z,1.08
2023-01-26T19:37:36.196Z,1.09
2023-01-26T19:39:38.968Z,1.14
2023-01-26T19:41:42.033Z,1.02
2023-01-26T19:43:45.317Z,1.07
2023-01-26T19:45:49.659Z,1.12
2023-01-26T19:47:52.529Z,1.04
2023-01-26T19:49:55.275Z,0.93
2023-01-26T19:51:59.511Z,0.85
2023-01-26T19:54:02.261Z,0.95
2023-01-26T19:56:09.646Z,0.92
2023-01-26T19:58:12.486Z,0.89
2023-01-26T20:00:16.128Z,0.96
2023-01-26T20:02:18.981Z,1.03
2023-01-26T20:04:21.813Z,1.11
2023-01-26T20:06:27.007Z,1.06
2023-01-26T20:08:31.875Z,1.12
2023-01-26T20:10:34.715Z,1.11
2023-01-26T20:12:37.563Z,1.06
2023-01-26T20:14:40.399Z,1.01
2023-01-26T20:16:43.209Z,1.00
2023-01-26T20:18:45.972Z,1.13
2023-01-26T20:20:52.737Z,1.13
2023-01-26T20:22:56.558Z,1.06
2023-01-26T20:25:01.029Z,1.11
2023-01-26T20:27:04.125Z,1.10
2023-01-26T20:29:08.140Z,1.05
2023-01-26T20:31:13.847Z,1.05
2023-01-26T20:33:17.143Z,0.94
2023-01-26T20:35:20.069Z,0.83
2023-01-26T20:37:22.916Z,0.80
2023-01-26T20:39:25.938Z,0.83
2023-01-26T20:41:32.169Z,0.91
2023-01-26T20:43:39.529Z,0.96
2023-01-26T20:45:44.409Z,0.88
2023-01-26T20:47:47.266Z,0.77
2023-01-26T20:49:52.795Z,0.69
2023-01-26T20:51:55.643Z,0.65
2023-01-26T20:54:01.076Z,0.69
2023-01-26T20:56:05.062Z,0.72
2023-01-26T20:58:09.331Z,0.76
2023-01-26T21:00:13.892Z,0.78
2023-01-26T21:02:17.307Z,0.80
2023-01-26T21:04:20.519Z,0.72
2023-01-26T21:06:26.033Z,0.64
2023-01-26T21:08:29.098Z,0.64
2023-01-26T21:10:31.880Z,0.63
2023-01-26T21:12:37.093Z,0.71
2023-01-26T21:14:41.313Z,0.78
2023-01-26T21:16:44.258Z,0.75
2023-01-26T21:18:47.431Z,0.75
2023-01-26T21:20:57.164Z,0.80
2023-01-26T21:23:00.545Z,0.85
2023-01-26T21:25:03.947Z,0.87
2023-01-26T21:27:07.146Z,0.84
2023-01-26T21:29:14.311Z,0.87
2023-01-26T21:31:22.095Z,0.80
2023-01-26T21:33:25.091Z,0.81
2023-01-26T21:35:27.923Z,0.89
2023-01-26T21:37:30.748Z,0.91
2023-01-26T21:39:33.655Z,0.89
2023-01-26T21:41:54.114Z,0.80
2023-01-26T21:43:57.503Z,0.77
2023-01-26T21:46:01.344Z,0.78
2023-01-26T21:48:24.618Z,0.83
2023-01-26T21:50:48.124Z,0.80
2023-01-26T21:52:59.298Z,0.74
2023-01-26T21:55:04.627Z,0.75
2023-01-26T21:57:23.729Z,0.77
2023-01-26T21:59:26.969Z,0.75
2023-01-26T22:01:34.384Z,0.81
2023-01-26T22:03:38.590Z,0.84
2023-01-26T22:05:41.374Z,0.88
2023-01-26T22:07:44.555Z,0.93
2023-01-26T22:09:47.379Z,0.94
2023-01-26T22:11:51.537Z,0.98
2023-01-26T22:13:54.947Z,0.97
2023-01-26T22:16:03.134Z,0.96
2023-01-26T22:18:07.113Z,0.89
2023-01-26T22:20:14.085Z,0.88
2023-01-26T22:22:17.139Z,0.88
2023-01-26T22:24:20.056Z,0.89
2023-01-26T22:26:23.841Z,0.89
2023-01-26T22:28:26.731Z,0.92
2023-01-26T22:30:29.550Z,0.95
2023-01-26T22:32:32.485Z,1.01
2023-01-26T22:34:35.667Z,1.03
2023-01-26T22:36:40.464Z,1.01
2023-01-26T22:38:44.023Z,0.99
2023-01-26T22:40:46.820Z,1.01
2023-01-26T22:42:49.815Z,1.06
2023-01-26T22:44:52.615Z,1.05
2023-01-26T22:46:58.060Z,1.11
2023-01-26T22:49:00.900Z,1.07
2023-01-26T22:51:07.912Z,1.09
2023-01-26T22:53:12.555Z,1.11
2023-01-26T22:55:15.626Z,1.11
2023-01-26T22:57:18.439Z,1.12
2023-01-26T22:59:21.270Z,1.16
2023-01-26T23:01:24.354Z,1.20
2023-01-26T23:03:27.159Z,1.22
2023-01-26T23:05:31.989Z,1.26
2023-01-26T23:07:34.748Z,1.25
2023-01-26T23:09:39.079Z,1.24
2023-01-26T23:11:42.368Z,1.18
2023-01-26T23:13:47.034Z,1.16
2023-01-26T23:15:49.808Z,1.16
2023-01-26T23:17:53.919Z,1.16
2023-01-26T23:19:56.726Z,1.20
2023-01-26T23:21:59.473Z,1.20
2023-01-26T23:24:02.338Z,1.26
2023-01-26T23:26:07.453Z,1.30
2023-01-26T23:28:10.293Z,1.29
2023-01-26T23:30:13.931Z,1.31
2023-01-26T23:32:16.939Z,1.30
2023-01-26T23:34:19.793Z,1.29
2023-01-26T23:36:22.589Z,1.23
2023-01-26T23:38:27.333Z,1.24
2023-01-26T23:40:30.167Z,1.21
2023-01-26T23:42:45.244Z,1.21
2023-01-26T23:44:57.205Z,1.23
2023-01-26T23:47:00.084Z,1.27
2023-01-26T23:49:02.916Z,1.32
2023-01-26T23:51:07.419Z,1.30
2023-01-26T23:53:10.901Z,1.32
2023-01-26T23:55:13.821Z,1.30
2023-01-26T23:57:16.639Z,1.30
2023-01-26T23:59:20.930Z,1.31
